Terminal Aerodrome Forecast
Issued by NWS Paducah, KY

Home | Current Version | Previous Version | Text Only | Print | Product List | Glossary On
Versions: 1 2 3 4 5 6 7 8 9 10 11 12 13 14 15 16 17 18
465
FTUS43 KPAH 051725
TAFEVV
TAF
KEVV 051725Z 0518/0618 10006KT P6SM OVC015
     FM060400 05005KT 4SM -RA BR OVC006
     FM060700 02005KT 2SM -RA BR OVC005
     FM061500 33008KT 4SM -RA BR OVC009
     FM061700 31014G22KT P6SM OVC015=

USA.gov is the U.S. government's official web portal to all federal, state and local government web resources and services.